KEAN/EAN METAR and TAF weather

Enter ICAO airport designator
Station Type Date Time Source
KEAN METAR 2019/04/19 22:35 UTC NOAA

KEAN 192235Z AUTO 34007KT 10SM OVC005 24/M02 A2996 RMK AO2 T02431025


Station Type Date Time Source
KEAN Decoded METAR 2019/04/19 22:35 UTC NOAA

Station name not available
Apr 19, 2019 - 06:35 PM EDT / 2019.04.19 2235 UTC
Wind: from the NNW (340 degrees) at 8 MPH (7 KT):0
Visibility: 10 mile(s):0
Sky conditions: overcast
Temperature: 75.7 F (24.3 C)
Dew Point: 27.5 F (-2.5 C)
Relative Humidity: 16%
Pressure (altimeter): 29.96 in. Hg (1014 hPa)
ob: KEAN 192235Z AUTO 34007KT 10SM OVC005 24/M02 A2996 RMK AO2 T02431025
cycle: 22

Station Type Date Time Source
KEAN TAF UTC NOAA

Error!

Example: see airport list